Time;durP1;ratioP1;P1;durP2;ratioP2;P2;SDS_P1;SDS_P2;PMS_P1;PMS_P2;Temp;Humidity;BMP_temperature;BMP_pressure;BME280_temperature;BME280_humidity;BME280_pressure;Samples;Min_cycle;Max_cycle;Signal;HPM_P1;HPM_P2
2023/01/01 00:00:08;;;;;;;438.02;294.85;;;6.40;99.90;;;;;;5052561;28;20017;-70
2023/01/01 00:02:34;;;;;;;449.40;310.42;;;6.40;99.90;;;;;;5052055;28;20434;-72
2023/01/01 00:05:00;;;;;;;275.58;170.80;;;6.40;99.90;;;;;;5052340;28;20107;-69
2023/01/01 00:07:25;;;;;;;239.10;144.75;;;6.40;99.90;;;;;;5051689;28;20033;-70
2023/01/01 00:12:35;;;;;;;183.40;111.40;;;6.40;99.90;;;;;;5052296;28;20124;-71
2023/01/01 00:15:01;;;;;;;207.38;126.13;;;6.50;99.90;;;;;;5051843;28;20060;-70
2023/01/01 00:17:28;;;;;;;250.25;153.00;;;6.50;99.90;;;;;;5050965;28;20042;-70
2023/01/01 00:19:53;;;;;;;475.60;319.92;;;6.50;99.90;;;;;;5051844;28;20036;-71
2023/01/01 00:22:19;;;;;;;467.50;315.60;;;6.40;99.90;;;;;;5052586;28;20025;-70
2023/01/01 00:24:45;;;;;;;367.27;236.68;;;6.40;99.90;;;;;;5051983;28;20032;-70
2023/01/01 00:27:11;;;;;;;390.63;262.17;;;6.40;99.90;;;;;;5051907;28;20029;-70
2023/01/01 00:29:36;;;;;;;195.40;115.60;;;6.40;99.90;;;;;;5051833;28;20488;-70
2023/01/01 00:32:03;;;;;;;234.45;139.38;;;6.40;99.90;;;;;;5052002;28;20078;-66
2023/01/01 00:34:28;;;;;;;169.45;107.72;;;6.40;99.90;;;;;;5052569;28;20025;-66
2023/01/01 00:36:54;;;;;;;163.02;97.03;;;6.40;99.90;;;;;;5051890;28;20473;-66
2023/01/01 00:39:20;;;;;;;124.68;76.30;;;6.40;99.90;;;;;;5052248;28;20045;-65
2023/01/01 00:41:45;;;;;;;129.02;73.68;;;6.40;99.90;;;;;;5052063;28;20385;-65
2023/01/01 00:44:11;;;;;;;113.65;65.50;;;6.40;99.90;;;;;;5052221;28;20393;-64
2023/01/01 00:46:36;;;;;;;100.20;61.17;;;6.40;99.90;;;;;;5052039;28;20398;-64
2023/01/01 00:49:02;;;;;;;88.82;54.10;;;6.40;99.90;;;;;;5051953;28;20183;-64
2023/01/01 00:51:29;;;;;;;141.30;90.53;;;6.40;99.90;;;;;;5052010;28;20029;-63
2023/01/01 00:53:54;;;;;;;202.07;127.18;;;6.40;99.90;;;;;;5051591;28;20400;-64
2023/01/01 00:56:20;;;;;;;162.73;104.40;;;6.40;99.90;;;;;;5051966;28;20032;-64
2023/01/01 00:58:46;;;;;;;111.03;66.15;;;6.40;99.90;;;;;;5051458;28;20025;-64
2023/01/01 01:01:11;;;;;;;95.53;58.00;;;6.40;99.90;;;;;;5052247;28;20028;-65
2023/01/01 01:03:38;;;;;;;87.80;53.35;;;6.40;99.90;;;;;;5051960;28;20021;-65
2023/01/01 01:06:03;;;;;;;77.93;46.92;;;6.40;99.90;;;;;;5051726;28;20112;-65
2023/01/01 01:08:31;;;;;;;70.80;41.92;;;6.40;99.90;;;;;;5052369;28;20072;-65
2023/01/01 01:11:11;;;;;;;68.25;41.45;;;6.40;99.90;;;;;;5051468;28;20021;-65
2023/01/01 01:13:38;;;;;;;65.95;38.50;;;6.40;99.90;;;;;;5052137;28;20454;-65
2023/01/01 01:16:09;;;;;;;97.32;58.67;;;6.40;99.90;;;;;;5051333;28;20549;-65
2023/01/01 01:18:35;;;;;;;116.75;72.30;;;6.40;99.90;;;;;;5053718;28;20025;-65
2023/01/01 01:21:00;;;;;;;81.78;48.75;;;6.40;99.90;;;;;;5055253;28;20037;-65
2023/01/01 01:23:26;;;;;;;66.30;40.97;;;6.40;99.90;;;;;;5055323;28;20096;-66
2023/01/01 01:25:51;;;;;;;65.55;38.15;;;6.30;99.90;;;;;;5054998;28;20115;-66
2023/01/01 01:28:17;;;;;;;76.88;47.72;;;6.30;99.90;;;;;;5055377;28;20104;-65
2023/01/01 01:30:43;;;;;;;70.63;43.60;;;6.30;99.90;;;;;;5055031;28;20055;-66
2023/01/01 01:33:08;;;;;;;74.15;45.22;;;6.30;99.90;;;;;;5055654;28;20048;-65
2023/01/01 01:35:34;;;;;;;66.10;40.78;;;6.30;99.90;;;;;;5055494;28;20491;-66
2023/01/01 01:38:00;;;;;;;64.45;41.45;;;6.30;99.90;;;;;;5054931;28;20037;-66
2023/01/01 01:40:26;;;;;;;63.63;40.05;;;6.30;99.90;;;;;;5054128;28;20041;-65
2023/01/01 01:42:51;;;;;;;59.72;37.55;;;6.20;99.90;;;;;;5054341;28;20032;-66
2023/01/01 01:45:18;;;;;;;71.15;40.55;;;6.30;99.90;;;;;;5055383;28;20108;-66
2023/01/01 01:47:55;;;;;;;66.75;39.90;;;6.20;99.90;;;;;;5055050;28;20068;-66
2023/01/01 01:50:31;;;;;;;56.53;36.28;;;6.20;99.90;;;;;;5054754;28;20036;-66
2023/01/01 01:53:31;;;;;;;62.65;38.90;;;6.20;99.90;;;;;;5054678;28;20029;-66
2023/01/01 01:56:01;;;;;;;66.90;41.23;;;6.20;99.90;;;;;;5052832;28;20355;-66
2023/01/01 01:58:29;;;;;;;65.50;40.65;;;6.20;99.90;;;;;;5054270;28;20261;-66
2023/01/01 02:00:55;;;;;;;62.17;35.25;;;6.20;99.90;;;;;;5054657;28;20412;-66
2023/01/01 02:03:38;;;;;;;57.95;34.40;;;6.10;99.90;;;;;;5054972;28;20029;-66
2023/01/01 02:06:04;;;;;;;53.28;31.38;;;6.20;99.90;;;;;;5054531;28;20144;-66
2023/01/01 02:08:31;;;;;;;57.67;33.25;;;6.20;99.90;;;;;;5054987;28;20071;-66
2023/01/01 02:10:56;;;;;;;46.67;29.40;;;6.20;99.90;;;;;;5054536;28;20021;-67
2023/01/01 02:13:22;;;;;;;53.38;30.10;;;6.20;99.90;;;;;;5053591;28;20028;-66
2023/01/01 02:15:55;;;;;;;51.65;30.33;;;6.20;99.90;;;;;;5054433;28;20083;-67
2023/01/01 02:18:35;;;;;;;46.47;28.35;;;6.20;99.90;;;;;;5054608;28;20470;-66
2023/01/01 02:21:18;;;;;;;40.30;26.25;;;6.20;99.90;;;;;;5053265;28;20043;-67
2023/01/01 02:24:03;;;;;;;47.92;28.50;;;6.20;99.90;;;;;;5054392;28;20028;-67
2023/01/01 02:26:42;;;;;;;51.78;28.50;;;6.20;99.90;;;;;;5054618;28;20155;-67
2023/01/01 02:29:41;;;;;;;50.58;28.90;;;6.20;99.90;;;;;;5053465;28;20033;-67
2023/01/01 02:32:15;;;;;;;46.85;28.63;;;6.20;99.90;;;;;;5054068;28;20531;-67
2023/01/01 02:34:47;;;;;;;49.38;28.85;;;6.20;99.90;;;;;;5054401;28;20031;-67
2023/01/01 02:37:17;;;;;;;53.58;30.70;;;6.20;99.90;;;;;;5054260;28;20025;-67
2023/01/01 02:39:51;;;;;;;52.55;30.73;;;6.10;99.90;;;;;;5054301;28;20045;-67
2023/01/01 02:42:18;;;;;;;49.05;29.60;;;6.10;99.90;;;;;;5054716;28;20114;-67
2023/01/01 02:44:47;;;;;;;48.42;30.52;;;6.10;99.90;;;;;;5053957;28;20389;-67
2023/01/01 02:47:17;;;;;;;47.35;28.48;;;6.00;99.90;;;;;;5054048;28;20074;-67
2023/01/01 02:49:58;;;;;;;53.30;31.75;;;6.10;99.90;;;;;;5052820;28;20442;-66
2023/01/01 02:52:48;;;;;;;49.05;31.00;;;6.00;99.90;;;;;;5054209;28;20035;-67
2023/01/01 02:55:42;;;;;;;49.10;28.27;;;6.00;99.90;;;;;;5054467;28;20032;-67
2023/01/01 03:01:14;;;;;;;47.88;27.63;;;6.00;99.90;;;;;;5053555;28;20071;-68
2023/01/01 03:03:50;;;;;;;44.35;26.85;;;6.00;99.90;;;;;;5053702;28;20029;-67
2023/01/01 03:06:28;;;;;;;48.13;28.30;;;6.00;99.90;;;;;;5053792;28;20458;-67
2023/01/01 03:09:12;;;;;;;55.92;29.08;;;6.00;99.90;;;;;;5053453;28;20028;-68
2023/01/01 03:12:07;;;;;;;47.45;28.92;;;5.90;99.90;;;;;;5053526;28;20458;-67
2023/01/01 03:15:05;;;;;;;48.25;28.02;;;5.90;99.90;;;;;;5053827;28;20032;-67
2023/01/01 03:17:40;;;;;;;48.60;29.67;;;5.90;99.90;;;;;;5053637;28;20055;-67
2023/01/01 03:20:28;;;;;;;51.88;31.45;;;5.80;99.90;;;;;;5052061;28;20078;-67
2023/01/01 03:22:59;;;;;;;57.55;32.03;;;5.80;99.90;;;;;;5053243;28;20021;-67
2023/01/01 03:25:30;;;;;;;62.17;37.25;;;5.80;99.90;;;;;;5053255;28;20033;-67
2023/01/01 03:28:01;;;;;;;88.83;51.10;;;5.80;99.90;;;;;;5053241;28;20120;-67
2023/01/01 03:30:29;;;;;;;99.68;58.47;;;5.80;99.90;;;;;;5053895;28;20032;-67
2023/01/01 03:33:03;;;;;;;108.55;63.83;;;5.70;99.90;;;;;;5052823;28;20435;-67
2023/01/01 03:35:40;;;;;;;115.63;66.25;;;5.70;99.90;;;;;;5053516;28;20025;-67
2023/01/01 03:38:21;;;;;;;126.68;73.90;;;5.70;99.90;;;;;;5052773;28;20027;-67
2023/01/01 03:40:52;;;;;;;141.10;83.78;;;5.70;99.90;;;;;;5053205;28;20056;-67
2023/01/01 03:43:34;;;;;;;145.27;87.00;;;5.70;99.90;;;;;;5053102;28;20029;-67
2023/01/01 03:46:00;;;;;;;163.30;98.45;;;5.60;99.90;;;;;;5052126;28;20039;-67
2023/01/01 03:48:26;;;;;;;174.27;98.32;;;5.60;99.90;;;;;;5053324;28;20064;-67
2023/01/01 03:51:08;;;;;;;170.70;102.50;;;5.60;99.90;;;;;;5052403;28;20056;-66
2023/01/01 03:53:42;;;;;;;164.10;97.38;;;5.50;99.90;;;;;;5053308;28;20029;-67
2023/01/01 03:56:17;;;;;;;151.48;88.07;;;5.50;99.90;;;;;;5052874;28;20036;-67
2023/01/01 03:59:15;;;;;;;141.75;84.70;;;5.50;99.90;;;;;;5052924;28;20029;-67
2023/01/01 04:01:48;;;;;;;147.27;90.20;;;5.50;99.90;;;;;;5052057;28;20044;-67
2023/01/01 04:04:15;;;;;;;143.43;84.38;;;5.50;99.90;;;;;;5055041;28;20036;-67
2023/01/01 04:06:41;;;;;;;162.40;90.80;;;5.40;99.90;;;;;;5055611;28;20035;-67
2023/01/01 04:09:14;;;;;;;151.52;88.82;;;5.40;99.90;;;;;;5055082;28;20116;-67
2023/01/01 04:12:02;;;;;;;139.45;82.95;;;5.40;99.90;;;;;;5055131;28;20040;-67
2023/01/01 04:14:37;;;;;;;153.52;89.57;;;5.40;99.90;;;;;;5054591;28;20482;-67
2023/01/01 04:17:05;;;;;;;162.95;98.20;;;5.40;99.90;;;;;;5053102;28;20113;-67
2023/01/01 04:19:31;;;;;;;171.68;98.03;;;5.40;99.90;;;;;;5053244;28;20055;-66
2023/01/01 04:21:57;;;;;;;170.95;96.88;;;5.30;99.90;;;;;;5052647;28;20099;-67
2023/01/01 04:24:23;;;;;;;172.98;100.60;;;5.30;99.90;;;;;;5052913;28;20104;-67
2023/01/01 04:26:50;;;;;;;169.38;98.90;;;5.30;99.90;;;;;;5052725;28;20132;-67
2023/01/01 04:29:16;;;;;;;169.75;97.40;;;5.30;99.90;;;;;;5052170;28;20338;-67
2023/01/01 04:31:41;;;;;;;166.73;97.75;;;5.30;99.90;;;;;;5052134;28;20437;-67
2023/01/01 04:34:07;;;;;;;171.82;97.90;;;5.30;99.90;;;;;;5051948;28;20024;-67
2023/01/01 04:36:33;;;;;;;173.55;100.22;;;5.30;99.90;;;;;;5050439;28;20473;-67
2023/01/01 04:38:59;;;;;;;170.07;97.53;;;5.30;99.90;;;;;;5050773;28;20052;-67
2023/01/01 04:41:25;;;;;;;179.48;102.38;;;5.20;99.90;;;;;;5052628;28;20033;-67
2023/01/01 04:43:51;;;;;;;177.80;103.68;;;5.20;99.90;;;;;;5052642;28;20021;-67
2023/01/01 04:46:18;;;;;;;171.10;102.53;;;5.20;99.90;;;;;;5051709;28;20121;-67
2023/01/01 04:48:45;;;;;;;180.98;104.70;;;5.20;99.90;;;;;;5052469;28;20377;-67
2023/01/01 04:51:12;;;;;;;167.23;99.68;;;5.20;99.90;;;;;;5052020;28;20044;-71
2023/01/01 04:53:38;;;;;;;165.32;96.53;;;5.20;99.90;;;;;;5054416;28;20123;-69
2023/01/01 04:56:08;;;;;;;160.05;96.25;;;5.20;99.90;;;;;;5054580;28;20522;-69
2023/01/01 04:58:35;;;;;;;160.00;93.78;;;5.20;99.90;;;;;;5056376;28;20035;-69
2023/01/01 05:01:01;;;;;;;157.68;93.60;;;5.20;99.90;;;;;;5055331;28;20052;-69
2023/01/01 05:03:27;;;;;;;160.65;94.88;;;5.20;99.90;;;;;;5055544;28;20053;-69
2023/01/01 05:06:04;;;;;;;161.82;93.47;;;5.20;99.90;;;;;;5056006;28;20071;-69
2023/01/01 05:08:31;;;;;;;159.85;93.18;;;5.20;99.90;;;;;;5054308;28;20021;-69
2023/01/01 05:11:05;;;;;;;152.23;88.13;;;5.20;99.90;;;;;;5055446;28;20081;-69
2023/01/01 05:13:32;;;;;;;147.52;87.70;;;5.20;99.90;;;;;;5054379;28;20063;-69
2023/01/01 05:16:02;;;;;;;143.85;86.20;;;5.20;99.90;;;;;;5055434;28;20120;-69
2023/01/01 05:18:28;;;;;;;145.27;86.70;;;5.20;99.90;;;;;;5035769;28;20458;-69
2023/01/01 05:20:59;;;;;;;141.60;83.75;;;5.20;99.90;;;;;;5035822;28;20030;-69
2023/01/01 05:23:25;;;;;;;145.60;83.32;;;5.20;99.90;;;;;;5035924;28;20026;-68
2023/01/01 05:25:50;;;;;;;153.23;87.07;;;5.20;99.90;;;;;;5045862;28;20043;-69
2023/01/01 05:28:16;;;;;;;143.00;83.75;;;5.20;99.90;;;;;;5055625;28;20067;-69
2023/01/01 05:30:41;;;;;;;140.77;83.25;;;5.20;99.90;;;;;;5055578;28;20055;-69
2023/01/01 05:33:07;;;;;;;146.00;81.03;;;5.20;99.90;;;;;;5055165;28;20079;-69
2023/01/01 05:35:33;;;;;;;139.45;81.25;;;5.20;99.90;;;;;;5055486;28;20033;-69
2023/01/01 05:37:59;;;;;;;145.00;84.18;;;5.20;99.90;;;;;;5055405;28;20031;-69
2023/01/01 05:40:25;;;;;;;140.10;82.75;;;5.20;99.90;;;;;;5055584;28;20052;-69
2023/01/01 05:42:50;;;;;;;149.95;86.68;;;5.20;99.90;;;;;;5055250;28;20021;-69
2023/01/01 05:45:16;;;;;;;154.63;88.13;;;5.20;99.90;;;;;;5054480;28;20048;-69
2023/01/01 05:47:42;;;;;;;147.45;84.65;;;5.20;99.90;;;;;;5054881;28;20398;-69
2023/01/01 05:50:08;;;;;;;145.38;84.85;;;5.20;99.90;;;;;;5054854;28;20033;-69
2023/01/01 05:52:33;;;;;;;137.15;84.05;;;5.20;99.90;;;;;;5054403;28;20458;-69
2023/01/01 05:55:00;;;;;;;122.13;74.63;;;5.20;99.90;;;;;;5055091;28;20025;-69
2023/01/01 05:57:28;;;;;;;118.63;71.35;;;5.20;99.90;;;;;;5054331;28;20036;-69
2023/01/01 05:59:53;;;;;;;111.93;68.72;;;5.20;99.90;;;;;;5054691;28;20039;-69
2023/01/01 06:02:19;;;;;;;114.05;68.45;;;5.20;99.90;;;;;;5054378;28;20112;-67
2023/01/01 06:04:45;;;;;;;112.80;67.55;;;5.20;99.90;;;;;;5053185;28;20036;-69
2023/01/01 06:07:11;;;;;;;109.22;65.18;;;5.20;99.90;;;;;;5053524;28;20025;-68
2023/01/01 06:09:36;;;;;;;97.97;63.08;;;5.20;99.90;;;;;;5054114;28;20474;-69
2023/01/01 06:12:02;;;;;;;112.57;65.85;;;5.20;99.90;;;;;;5054306;28;20029;-70
2023/01/01 06:14:28;;;;;;;115.60;65.60;;;5.20;99.90;;;;;;5053790;28;20028;-70
2023/01/01 06:16:54;;;;;;;106.55;62.00;;;5.10;99.90;;;;;;5053664;28;20036;-73
2023/01/01 06:19:19;;;;;;;105.00;63.28;;;5.20;99.90;;;;;;5053201;28;20075;-68
2023/01/01 06:21:45;;;;;;;106.10;62.40;;;5.10;99.90;;;;;;5053351;28;20031;-68
2023/01/01 06:24:11;;;;;;;106.55;61.67;;;5.10;99.90;;;;;;5053311;28;20112;-69
2023/01/01 06:26:37;;;;;;;100.55;58.88;;;5.10;99.90;;;;;;5053533;28;20504;-69
2023/01/01 06:29:03;;;;;;;98.90;60.15;;;5.10;99.90;;;;;;5053368;28;20108;-68
2023/01/01 06:31:30;;;;;;;101.65;58.72;;;5.10;99.90;;;;;;5053308;28;20109;-69
2023/01/01 06:33:56;;;;;;;108.25;60.15;;;5.10;99.90;;;;;;5053136;28;20036;-69
2023/01/01 06:36:23;;;;;;;104.00;57.72;;;5.10;99.90;;;;;;5053385;28;20033;-69
2023/01/01 06:38:50;;;;;;;99.30;57.38;;;5.10;99.90;;;;;;5052955;28;20409;-69
2023/01/01 06:41:19;;;;;;;92.13;54.75;;;5.10;99.90;;;;;;5051606;28;20035;-69
2023/01/01 06:43:45;;;;;;;91.47;53.60;;;5.10;99.90;;;;;;5053272;28;20132;-68
2023/01/01 06:46:18;;;;;;;85.28;51.55;;;5.10;99.90;;;;;;5052875;28;20036;-68
2023/01/01 06:48:46;;;;;;;81.45;50.00;;;5.10;99.90;;;;;;5053339;28;20045;-68
2023/01/01 06:51:18;;;;;;;80.32;46.92;;;5.10;99.90;;;;;;5052847;28;20036;-67
2023/01/01 06:53:43;;;;;;;76.43;46.83;;;5.10;99.90;;;;;;5053067;28;20128;-73
2023/01/01 06:56:09;;;;;;;81.88;48.13;;;5.20;99.90;;;;;;5053132;28;20108;-68
2023/01/01 06:58:35;;;;;;;81.43;50.00;;;5.20;99.90;;;;;;5053035;28;20420;-68
2023/01/01 07:01:10;;;;;;;79.75;48.95;;;5.20;99.90;;;;;;5053060;28;20029;-68
2023/01/01 07:03:36;;;;;;;76.43;45.55;;;5.20;99.90;;;;;;5052710;28;20032;-69
2023/01/01 07:06:02;;;;;;;75.40;46.95;;;5.20;99.90;;;;;;5052752;28;20071;-68
2023/01/01 07:08:28;;;;;;;79.68;47.38;;;5.20;99.90;;;;;;5052334;28;20055;-73
2023/01/01 07:10:56;;;;;;;73.05;45.38;;;5.20;99.90;;;;;;5052554;28;20024;-68
2023/01/01 07:13:25;;;;;;;81.68;47.38;;;5.20;99.90;;;;;;5051961;28;20037;-68
2023/01/01 07:15:51;;;;;;;75.88;46.40;;;5.20;99.90;;;;;;5037932;28;20040;-68
2023/01/01 07:18:21;;;;;;;70.22;43.88;;;5.20;99.90;;;;;;5051483;28;20028;-68
2023/01/01 07:20:54;;;;;;;66.82;42.72;;;5.20;99.90;;;;;;5052157;28;20102;-68
2023/01/01 07:23:19;;;;;;;73.75;44.65;;;5.30;99.90;;;;;;5049125;28;20043;-68
2023/01/01 07:25:48;;;;;;;68.47;43.67;;;5.30;99.90;;;;;;5052173;28;20485;-68
2023/01/01 07:28:14;;;;;;;72.10;43.47;;;5.30;99.90;;;;;;5051647;28;20056;-69
2023/01/01 07:30:39;;;;;;;66.65;42.30;;;5.40;99.90;;;;;;5051325;28;20470;-67
2023/01/01 07:33:05;;;;;;;67.22;41.85;;;5.40;99.90;;;;;;5051527;28;20021;-70
2023/01/01 07:35:31;;;;;;;74.15;43.35;;;5.40;99.90;;;;;;5048993;28;20024;-68
2023/01/01 07:37:56;;;;;;;65.10;41.70;;;5.50;99.90;;;;;;5051450;28;20033;-68
2023/01/01 07:40:22;;;;;;;64.75;41.83;;;5.50;99.90;;;;;;5049964;28;20045;-68
2023/01/01 07:42:47;;;;;;;67.90;41.05;;;5.50;99.90;;;;;;5052810;28;20029;-68
2023/01/01 07:45:13;;;;;;;68.55;42.00;;;5.50;99.90;;;;;;5052506;28;20067;-69
2023/01/01 07:47:39;;;;;;;66.38;41.05;;;5.60;99.90;;;;;;5053124;28;20061;-69
2023/01/01 07:50:05;;;;;;;58.10;39.40;;;5.60;99.90;;;;;;5052826;28;20411;-69
2023/01/01 07:52:30;;;;;;;65.60;40.00;;;5.70;99.90;;;;;;5052106;28;20025;-69
2023/01/01 07:54:56;;;;;;;64.25;37.88;;;5.70;99.90;;;;;;5053026;28;20091;-69
2023/01/01 07:57:21;;;;;;;66.18;39.25;;;5.70;99.90;;;;;;5052347;28;20031;-69
2023/01/01 07:59:47;;;;;;;55.58;38.25;;;5.80;99.90;;;;;;5052551;28;20100;-69
2023/01/01 08:02:13;;;;;;;63.42;40.17;;;5.80;99.90;;;;;;5052274;28;20472;-69
2023/01/01 08:04:38;;;;;;;59.40;38.22;;;5.80;99.90;;;;;;5052399;28;20104;-68
2023/01/01 08:07:04;;;;;;;62.53;38.30;;;5.80;99.90;;;;;;5052605;28;20035;-68
2023/01/01 08:09:30;;;;;;;61.53;38.35;;;5.90;99.90;;;;;;5052465;28;20446;-68
2023/01/01 08:11:57;;;;;;;65.45;38.63;;;5.90;99.90;;;;;;5053016;28;20086;-68
2023/01/01 08:14:26;;;;;;;64.47;39.40;;;5.90;99.90;;;;;;5051581;28;20374;-68
2023/01/01 08:16:52;;;;;;;64.30;39.97;;;5.90;99.90;;;;;;5051329;28;20111;-68
2023/01/01 08:19:18;;;;;;;62.17;39.00;;;5.90;99.90;;;;;;5050839;28;20104;-68
2023/01/01 08:21:43;;;;;;;61.58;39.05;;;5.90;99.90;;;;;;5050671;28;20551;-68
2023/01/01 08:24:09;;;;;;;60.60;36.47;;;5.90;99.90;;;;;;5050909;28;20075;-68
2023/01/01 08:26:36;;;;;;;58.88;38.13;;;5.90;99.90;;;;;;5052304;28;20040;-68
2023/01/01 08:29:04;;;;;;;61.90;37.13;;;6.00;99.90;;;;;;5054443;28;20086;-68
2023/01/01 08:31:29;;;;;;;63.38;37.63;;;5.90;99.90;;;;;;5054717;28;20025;-68
2023/01/01 08:33:55;;;;;;;62.55;38.85;;;5.90;99.90;;;;;;5056036;28;20458;-68
2023/01/01 08:36:21;;;;;;;61.83;39.28;;;6.00;99.90;;;;;;5055699;28;20631;-68
2023/01/01 08:38:47;;;;;;;65.53;39.72;;;6.00;99.90;;;;;;5052372;28;20048;-68
2023/01/01 08:41:12;;;;;;;59.58;37.30;;;6.00;99.90;;;;;;5056164;28;20061;-69
2023/01/01 08:43:38;;;;;;;59.47;38.38;;;6.00;99.90;;;;;;5056444;28;20355;-68
2023/01/01 08:46:04;;;;;;;62.20;39.08;;;6.00;99.90;;;;;;5056013;28;20036;-69
2023/01/01 08:48:29;;;;;;;56.90;37.92;;;6.00;99.90;;;;;;5056079;28;20068;-69
2023/01/01 08:51:00;;;;;;;64.20;39.30;;;6.10;99.90;;;;;;5056269;28;20032;-68
2023/01/01 08:53:27;;;;;;;63.17;40.08;;;6.10;99.90;;;;;;5056051;28;20115;-68
2023/01/01 08:55:57;;;;;;;65.03;38.97;;;6.20;99.90;;;;;;5056485;28;20036;-69
2023/01/01 08:58:23;;;;;;;62.87;38.57;;;6.20;99.90;;;;;;5055873;28;20029;-68
2023/01/01 09:00:49;;;;;;;64.70;40.33;;;6.20;99.90;;;;;;5056377;28;20025;-68
2023/01/01 09:03:15;;;;;;;60.80;38.05;;;6.30;99.90;;;;;;5055830;28;20133;-69
2023/01/01 09:05:44;;;;;;;65.78;39.83;;;6.40;99.90;;;;;;5056026;28;20025;-69
2023/01/01 09:08:11;;;;;;;67.53;38.15;;;6.50;99.90;;;;;;5056203;28;20028;-69
2023/01/01 09:10:37;;;;;;;60.17;37.25;;;6.60;99.90;;;;;;5056105;28;20021;-68
2023/01/01 09:13:03;;;;;;;62.78;35.58;;;6.60;99.90;;;;;;5055733;28;20535;-68
2023/01/01 09:15:28;;;;;;;60.92;36.95;;;6.70;99.90;;;;;;5055505;28;20029;-69
2023/01/01 09:17:54;;;;;;;55.75;34.08;;;6.90;99.90;;;;;;5055576;28;20090;-68
2023/01/01 09:20:19;;;;;;;55.25;34.08;;;7.00;99.90;;;;;;5055399;28;20104;-70
2023/01/01 09:22:45;;;;;;;55.17;32.15;;;7.00;99.90;;;;;;5055943;28;20021;-68
2023/01/01 09:25:11;;;;;;;51.67;32.00;;;7.10;99.90;;;;;;5055946;28;20032;-68
2023/01/01 09:27:36;;;;;;;50.13;31.05;;;7.20;99.90;;;;;;5055608;28;20036;-68
2023/01/01 09:30:03;;;;;;;53.92;32.85;;;7.20;99.90;;;;;;5055703;28;20029;-68
2023/01/01 09:32:28;;;;;;;48.33;29.80;;;7.30;99.90;;;;;;5055042;28;20025;-68
2023/01/01 09:34:56;;;;;;;44.13;27.70;;;7.30;99.90;;;;;;5055308;28;20036;-68
2023/01/01 09:37:21;;;;;;;43.40;27.75;;;7.40;99.90;;;;;;5055210;28;20082;-68
2023/01/01 09:39:47;;;;;;;46.40;27.98;;;7.50;99.90;;;;;;5055332;28;20049;-69
2023/01/01 09:42:16;;;;;;;49.42;28.40;;;7.50;99.90;;;;;;5055181;28;20490;-69
2023/01/01 09:45:02;;;;;;;42.30;27.25;;;7.50;99.90;;;;;;5055345;28;20087;-68
2023/01/01 09:47:52;;;;;;;40.75;26.67;;;7.60;99.90;;;;;;5054965;28;20032;-68
2023/01/01 09:50:26;;;;;;;47.42;27.05;;;7.60;99.90;;;;;;5053629;28;20024;-69
2023/01/01 09:53:26;;;;;;;40.10;26.02;;;7.70;99.90;;;;;;5055129;28;20382;-68
2023/01/01 09:55:55;;;;;;;37.78;24.92;;;7.70;99.90;;;;;;5055111;28;20155;-68
2023/01/01 09:58:26;;;;;;;43.03;25.00;;;7.70;99.90;;;;;;5054691;28;20111;-68
2023/01/01 10:00:54;;;;;;;42.40;24.60;;;7.80;99.90;;;;;;5055227;28;20084;-68
2023/01/01 10:04:16;;;;;;;37.50;24.13;;;7.90;99.90;;;;;;5054672;28;20040;-69
2023/01/01 10:06:54;;;;;;;38.80;23.98;;;8.00;99.90;;;;;;5052738;28;20033;-69
2023/01/01 10:09:34;;;;;;;40.78;24.95;;;8.20;99.90;;;;;;5052163;28;20498;-69
2023/01/01 10:12:04;;;;;;;41.08;24.45;;;8.30;99.90;;;;;;5054310;28;20466;-68
2023/01/01 10:14:32;;;;;;;36.33;23.52;;;8.60;99.90;;;;;;5054497;28;20032;-68
2023/01/01 10:17:15;;;;;;;40.67;24.50;;;8.80;99.90;;;;;;5054862;28;20398;-68
2023/01/01 10:19:44;;;;;;;37.30;23.13;;;9.00;99.90;;;;;;5054766;28;20370;-69
2023/01/01 10:22:19;;;;;;;40.20;24.15;;;9.10;99.90;;;;;;5054430;28;20462;-69
2023/01/01 10:24:54;;;;;;;33.88;21.80;;;9.40;99.90;;;;;;5054445;28;20071;-69
2023/01/01 10:27:51;;;;;;;30.77;20.30;;;9.60;99.90;;;;;;5052623;28;20063;-68
2023/01/01 10:30:20;;;;;;;33.75;22.17;;;9.60;99.90;;;;;;5054127;28;20485;-71
2023/01/01 10:32:52;;;;;;;29.85;19.65;;;9.70;99.90;;;;;;5054512;28;20100;-68
2023/01/01 10:35:29;;;;;;;30.13;18.13;;;9.80;99.90;;;;;;5054223;28;20041;-73
2023/01/01 10:37:57;;;;;;;29.13;18.35;;;9.90;99.90;;;;;;5054504;28;20033;-69
2023/01/01 10:40:27;;;;;;;27.52;18.55;;;9.90;99.90;;;;;;5054174;28;20045;-69
2023/01/01 10:42:56;;;;;;;29.92;18.67;;;10.00;99.90;;;;;;5054638;28;20111;-69
2023/01/01 10:45:31;;;;;;;31.92;19.30;;;10.00;99.90;;;;;;5053892;28;20032;-69
2023/01/01 10:48:09;;;;;;;29.52;18.70;;;10.00;99.90;;;;;;5054242;28;20111;-69
2023/01/01 10:50:45;;;;;;;28.30;18.25;;;10.10;99.90;;;;;;5052997;28;20067;-69
2023/01/01 10:53:25;;;;;;;27.40;17.50;;;10.00;99.90;;;;;;5054067;28;20040;-69
2023/01/01 10:56:01;;;;;;;25.83;17.65;;;10.00;99.90;;;;;;5054235;28;20029;-69
2023/01/01 10:58:51;;;;;;;29.40;18.90;;;10.10;99.90;;;;;;5053803;28;20479;-69
2023/01/01 11:01:16;;;;;;;30.70;21.30;;;10.10;99.90;;;;;;5054149;28;20025;-69
2023/01/01 11:04:20;;;;;;;30.70;20.67;;;10.20;99.90;;;;;;5053546;28;20062;-69
2023/01/01 11:06:47;;;;;;;31.83;19.85;;;10.20;99.90;;;;;;5051447;28;20045;-69
2023/01/01 11:09:30;;;;;;;30.95;20.02;;;10.30;99.90;;;;;;5051363;28;20040;-69
2023/01/01 11:12:01;;;;;;;30.75;18.83;;;10.30;99.90;;;;;;5051343;28;20367;-69
2023/01/01 11:14:52;;;;;;;28.58;18.55;;;10.50;99.90;;;;;;5051019;28;20495;-69
2023/01/01 11:17:25;;;;;;;;;;;10.60;99.90;;;;;;5051567;28;20036;-69
2023/01/01 11:19:52;;;;;;;28.88;18.75;;;10.80;99.90;;;;;;5051201;28;20012;-69
2023/01/01 11:22:47;;;;;;;24.23;16.33;;;10.90;99.90;;;;;;5038589;28;20099;-69
2023/01/01 11:25:19;;;;;;;27.63;18.73;;;11.10;99.90;;;;;;5031242;28;20172;-69
2023/01/01 11:27:46;;;;;;;26.73;18.50;;;11.30;99.90;;;;;;5030677;28;20489;-68
2023/01/01 11:30:26;;;;;;;28.67;18.40;;;11.30;99.90;;;;;;5030995;28;20121;-68
2023/01/01 11:32:57;;;;;;;28.35;18.35;;;11.30;99.90;;;;;;5031003;28;20034;-67
2023/01/01 11:35:25;;;;;;;27.45;19.27;;;11.30;99.90;;;;;;5030741;28;20033;-68
2023/01/01 11:37:53;;;;;;;24.98;17.48;;;11.30;99.90;;;;;;5045034;28;20045;-67
2023/01/01 11:40:23;;;;;;;27.67;18.13;;;11.20;99.90;;;;;;5053435;28;20048;-68
2023/01/01 11:42:59;;;;;;;24.58;18.20;;;11.20;99.90;;;;;;5052977;28;20025;-68
2023/01/01 11:45:27;;;;;;;29.60;18.45;;;11.20;99.90;;;;;;5052842;28;20401;-69
2023/01/01 11:47:59;;;;;;;24.08;16.95;;;11.10;99.90;;;;;;5052960;28;20132;-68
2023/01/01 11:50:37;;;;;;;23.98;17.35;;;11.10;99.90;;;;;;5052665;28;20064;-68
2023/01/01 11:53:23;;;;;;;26.25;17.98;;;11.10;99.90;;;;;;5053081;28;20401;-67
2023/01/01 11:56:07;;;;;;;24.30;16.90;;;11.20;99.90;;;;;;5048756;28;20124;-68
2023/01/01 11:58:39;;;;;;;25.45;18.75;;;11.30;99.90;;;;;;5052598;28;20025;-69
2023/01/01 12:01:18;;;;;;;31.08;19.23;;;11.40;99.90;;;;;;5052537;28;20512;-68
2023/01/01 12:03:54;;;;;;;31.08;19.20;;;11.50;99.90;;;;;;5052420;28;20551;-68
2023/01/01 12:06:25;;;;;;;23.55;17.00;;;11.60;99.90;;;;;;5052496;28;20490;-68
2023/01/01 12:08:55;;;;;;;;;;;11.70;99.90;;;;;;5053052;28;20029;-68
2023/01/01 12:11:40;;;;;;;27.10;17.50;;;11.80;99.90;;;;;;5052992;28;19904;-68
2023/01/01 12:14:35;;;;;;;26.58;18.27;;;11.90;99.90;;;;;;5052732;28;20029;-68
2023/01/01 12:17:46;;;;;;;26.42;17.75;;;12.00;99.90;;;;;;5051541;28;20033;-67
2023/01/01 12:20:15;;;;;;;25.50;16.73;;;12.00;99.90;;;;;;5048782;28;20466;-68
2023/01/01 12:22:41;;;;;;;27.25;18.63;;;12.10;99.90;;;;;;5052154;28;20028;-69
2023/01/01 12:25:13;;;;;;;30.92;20.20;;;12.20;99.90;;;;;;5052496;28;20518;-68
2023/01/01 12:28:20;;;;;;;25.73;17.33;;;12.30;99.90;;;;;;5052328;28;20100;-68
2023/01/01 12:30:48;;;;;;;26.63;17.10;;;12.40;99.90;;;;;;5051690;28;20094;-68
2023/01/01 12:33:41;;;;;;;24.35;16.88;;;12.50;99.90;;;;;;5051218;28;20108;-68
2023/01/01 12:36:28;;;;;;;25.35;16.83;;;12.50;99.90;;;;;;5051288;28;20371;-69
2023/01/01 12:39:26;;;;;;;22.48;16.35;;;12.50;99.90;;;;;;5052156;28;20060;-69
2023/01/01 12:42:03;;;;;;;22.35;16.02;;;12.50;99.90;;;;;;5040244;28;20060;-68
2023/01/01 12:44:56;;;;;;;25.55;16.42;;;12.60;99.90;;;;;;5052183;28;20029;-68
2023/01/01 12:47:58;;;;;;;21.67;16.77;;;12.60;99.90;;;;;;5052374;28;20473;-68
2023/01/01 12:50:45;;;;;;;24.67;16.77;;;12.60;99.90;;;;;;5052121;28;20116;-68
2023/01/01 12:53:38;;;;;;;22.65;15.70;;;12.60;99.90;;;;;;5052361;28;20036;-68
2023/01/01 12:56:09;;;;;;;23.67;17.08;;;12.70;99.90;;;;;;5052264;28;20374;-69